createdAt,value
2022-10-29T08:14:44.464Z,7.50
2022-10-29T08:22:42.324Z,14.33
2022-10-29T08:25:10.565Z,13.20
2022-10-29T08:27:38.260Z,14.20
2022-10-29T08:30:07.596Z,13.03
2022-10-29T08:32:36.063Z,14.27
2022-10-29T08:35:04.182Z,14.73
2022-10-29T08:37:31.834Z,14.37
2022-10-29T08:39:59.803Z,15.47
2022-10-29T08:43:14.834Z,14.20
2022-10-29T08:45:48.542Z,14.23
2022-10-29T08:48:33.892Z,14.80
2022-10-29T08:51:30.631Z,14.97
2022-10-29T08:56:50.728Z,13.83
2022-10-29T08:59:24.443Z,13.57
2022-10-29T09:01:54.918Z,14.13
2022-10-29T09:04:22.695Z,15.13
2022-10-29T09:06:59.173Z,14.77
2022-10-29T09:09:41.149Z,13.83
2022-10-29T09:12:23.802Z,14.20
2022-10-29T09:15:17.247Z,14.67
2022-10-29T09:17:45.056Z,13.90
2022-10-29T09:20:43.557Z,14.60
2022-10-29T09:23:35.477Z,14.17
2022-10-29T09:26:04.909Z,12.80
2022-10-29T09:28:44.092Z,12.60
2022-10-29T09:31:17.453Z,12.77
2022-10-29T09:33:48.383Z,13.33
2022-10-29T09:36:19.954Z,12.23
2022-10-29T09:38:59.328Z,13.40
2022-10-29T09:41:32.471Z,12.70
2022-10-29T09:44:20.772Z,14.73
2022-10-29T09:47:18.971Z,13.40
2022-10-29T09:50:08.789Z,12.40
2022-10-29T09:52:39.798Z,13.63
2022-10-29T09:55:10.868Z,12.07
2022-10-29T09:57:40.359Z,13.53
2022-10-29T10:00:18.013Z,12.37
2022-10-29T10:02:54.776Z,12.47
2022-10-29T10:05:35.506Z,11.47
2022-10-29T10:08:13.984Z,11.63
2022-10-29T10:10:58.070Z,12.43
2022-10-29T10:13:38.429Z,13.17
2022-10-29T10:16:06.636Z,11.80
2022-10-29T10:18:34.072Z,11.73
2022-10-29T10:21:04.310Z,11.37
2022-10-29T10:23:41.808Z,11.23
2022-10-29T10:26:28.655Z,10.53
2022-10-29T10:29:14.758Z,10.10
2022-10-29T10:31:46.755Z,13.00
2022-10-29T10:34:35.782Z,10.57
2022-10-29T10:37:05.877Z,10.00
2022-10-29T10:39:44.767Z,9.50
2022-10-29T10:42:22.454Z,11.77
2022-10-29T10:44:52.257Z,11.10
2022-10-29T10:47:23.146Z,11.55
2022-10-29T10:49:50.559Z,10.15
2022-10-29T10:52:18.383Z,9.80
2022-10-29T10:54:59.243Z,11.48
2022-10-29T10:57:34.837Z,12.05
2022-10-29T11:00:17.083Z,10.63
2022-10-29T11:02:44.553Z,10.25
2022-10-29T11:05:20.796Z,10.00
2022-10-29T11:08:08.685Z,9.48
2022-10-29T11:10:43.342Z,10.05
2022-10-29T11:13:17.856Z,8.68
2022-10-29T11:15:49.392Z,9.25
2022-10-29T11:20:59.550Z,9.50
2022-10-29T11:23:47.635Z,9.57
2022-10-29T11:26:21.604Z,9.65
2022-10-29T11:29:11.347Z,9.25
2022-10-29T11:31:58.874Z,8.95
2022-10-29T11:34:38.062Z,9.23
2022-10-29T11:37:17.440Z,8.95
2022-10-29T11:39:56.421Z,8.07
2022-10-29T11:42:23.983Z,8.82
2022-10-29T11:44:51.854Z,7.75
2022-10-29T11:47:43.762Z,6.55
2022-10-29T11:50:25.455Z,6.80
2022-10-29T11:53:18.298Z,7.25
2022-10-29T11:55:57.532Z,7.53
2022-10-29T11:58:38.168Z,6.40
2022-10-29T12:01:20.358Z,5.70
2022-10-29T12:04:05.669Z,5.55
2022-10-29T12:07:02.438Z,6.38
2022-10-29T12:09:54.378Z,5.45
2022-10-29T12:12:42.495Z,4.72
2022-10-29T12:15:13.898Z,4.90
2022-10-29T12:18:17.236Z,4.70
2022-10-29T12:20:55.987Z,5.30
2022-10-29T12:23:25.411Z,4.85
2022-10-29T12:26:03.414Z,5.03
2022-10-29T12:28:54.399Z,4.63
2022-10-29T12:31:35.809Z,3.88
2022-10-29T12:34:20.391Z,4.32
2022-10-29T12:37:04.114Z,4.78
2022-10-29T12:39:49.979Z,4.38
2022-10-29T12:42:22.884Z,4.28
2022-10-29T12:45:25.058Z,5.68
2022-10-29T12:47:52.469Z,4.00
2022-10-29T12:50:19.923Z,3.67
2022-10-29T12:53:05.801Z,5.22
2022-10-29T12:55:34.564Z,4.38
2022-10-29T12:58:40.087Z,5.18
2022-10-29T13:01:07.673Z,4.90
2022-10-29T13:03:54.975Z,4.82
2022-10-29T13:06:43.891Z,5.00
2022-10-29T13:09:19.520Z,4.15
2022-10-29T13:11:55.436Z,4.78
2022-10-29T13:14:42.203Z,3.90
2022-10-29T13:17:26.002Z,4.55
2022-10-29T13:19:59.302Z,4.47
2022-10-29T13:22:47.359Z,4.63
2022-10-29T13:25:43.037Z,4.50
2022-10-29T13:28:10.069Z,4.40
2022-10-29T13:30:39.489Z,4.38
2022-10-29T13:33:28.343Z,4.72
2022-10-29T13:35:55.732Z,4.93
2022-10-29T13:38:58.067Z,4.65
2022-10-29T13:41:32.480Z,5.57
2022-10-29T13:44:24.890Z,5.40
2022-10-29T13:47:01.157Z,5.25
2022-10-29T13:49:37.365Z,4.65
2022-10-29T13:52:14.775Z,5.32
2022-10-29T13:54:50.424Z,4.30
2022-10-29T13:57:59.362Z,5.03
2022-10-29T14:00:27.614Z,5.80
2022-10-29T14:03:17.061Z,4.43
2022-10-29T14:05:44.435Z,5.22
2022-10-29T14:08:14.194Z,5.22
2022-10-29T14:10:41.606Z,5.03
2022-10-29T14:13:29.021Z,4.82
2022-10-29T14:16:16.512Z,4.47
2022-10-29T14:18:45.816Z,4.95
2022-10-29T14:21:26.918Z,4.97
2022-10-29T14:24:02.513Z,4.72
2022-10-29T14:26:31.828Z,4.93
2022-10-29T14:29:20.431Z,4.75
2022-10-29T14:32:06.526Z,4.45
2022-10-29T14:34:34.044Z,6.63
2022-10-29T14:37:06.077Z,4.57
2022-10-29T14:39:56.915Z,4.70
2022-10-29T14:42:38.195Z,5.25
2022-10-29T14:45:08.568Z,5.47
2022-10-29T14:47:37.582Z,6.43
2022-10-29T14:50:14.548Z,5.55
2022-10-29T14:52:49.664Z,5.15
2022-10-29T14:55:32.072Z,5.10
2022-10-29T15:00:58.408Z,4.60
2022-10-29T15:03:30.395Z,4.45
2022-10-29T15:06:15.092Z,5.05
2022-10-29T15:08:44.984Z,5.05
2022-10-29T15:11:38.515Z,5.30
2022-10-29T15:16:54.893Z,5.38
2022-10-29T15:19:22.778Z,4.85
2022-10-29T15:21:50.355Z,5.32
2022-10-29T15:24:21.850Z,5.22
2022-10-29T15:26:58.608Z,5.90
2022-10-29T15:29:34.077Z,5.27
2022-10-29T15:32:02.918Z,4.97
2022-10-29T15:34:36.289Z,6.20
2022-10-29T15:37:32.090Z,6.57
2022-10-29T15:40:03.056Z,6.77
2022-10-29T15:42:33.437Z,6.97
2022-10-29T15:47:46.771Z,5.13
2022-10-29T15:50:19.870Z,6.90
2022-10-29T15:52:59.163Z,6.67
2022-10-29T15:55:38.502Z,6.53
2022-10-29T15:58:14.814Z,6.73
2022-10-29T16:00:42.185Z,6.70
2022-10-29T16:03:09.590Z,7.50
2022-10-29T16:05:37.401Z,8.27
2022-10-29T16:08:04.991Z,8.43
2022-10-29T16:10:32.754Z,9.73
2022-10-29T16:13:00.925Z,8.93
2022-10-29T16:15:28.376Z,11.47
2022-10-29T16:17:56.846Z,8.93
2022-10-29T16:20:24.762Z,8.80
2022-10-29T16:22:51.841Z,8.77
2022-10-29T16:25:25.505Z,8.07
2022-10-29T16:27:52.863Z,7.70
2022-10-29T16:30:21.598Z,7.77
2022-10-29T16:32:50.059Z,7.40
2022-10-29T16:35:26.036Z,8.97
2022-10-29T16:37:54.721Z,10.97
2022-10-29T16:40:27.006Z,9.60
2022-10-29T16:42:55.053Z,9.53
2022-10-29T16:45:29.888Z,7.67
2022-10-29T16:47:57.846Z,8.77
2022-10-29T16:50:27.267Z,8.57
2022-10-29T16:53:02.313Z,8.87
2022-10-29T16:55:32.458Z,9.80
2022-10-29T16:58:00.398Z,9.37
2022-10-29T17:00:31.618Z,11.30
2022-10-29T17:03:05.128Z,12.47
2022-10-29T17:05:40.287Z,11.43
2022-10-29T17:08:07.672Z,11.30
2022-10-29T17:10:35.705Z,9.83
2022-10-29T17:13:03.602Z,11.33
2022-10-29T17:15:30.664Z,12.87
2022-10-29T17:17:58.648Z,12.87
2022-10-29T17:20:25.875Z,9.67
2022-10-29T17:22:53.300Z,10.10
2022-10-29T17:25:20.743Z,16.17
2022-10-29T17:27:48.302Z,12.10
2022-10-29T17:30:15.817Z,11.53
2022-10-29T17:32:43.310Z,9.00
2022-10-29T17:35:10.709Z,10.97
2022-10-29T17:37:38.098Z,12.60
2022-10-29T17:40:08.115Z,11.93
2022-10-29T17:42:35.932Z,13.77
2022-10-29T17:45:03.395Z,15.27
2022-10-29T17:47:31.381Z,11.87
2022-10-29T17:49:58.857Z,11.87
2022-10-29T17:52:26.296Z,11.03
2022-10-29T17:54:53.696Z,10.50
2022-10-29T17:57:21.110Z,9.37
2022-10-29T17:59:48.570Z,9.93
2022-10-29T18:02:16.329Z,11.27
2022-10-29T18:04:45.903Z,10.40
2022-10-29T18:07:13.948Z,11.20
2022-10-29T18:09:41.542Z,11.00
2022-10-29T18:12:09.100Z,12.17
2022-10-29T18:14:37.756Z,11.90
2022-10-29T18:17:05.342Z,11.60
2022-10-29T18:19:32.756Z,13.20
2022-10-29T18:22:00.116Z,11.33
2022-10-29T18:24:27.531Z,12.43
2022-10-29T18:26:54.919Z,13.27
2022-10-29T18:29:22.338Z,12.23
2022-10-29T18:31:49.726Z,12.90
2022-10-29T18:34:17.203Z,14.57
2022-10-29T18:36:47.501Z,17.57
2022-10-29T18:39:15.219Z,13.37
2022-10-29T18:41:42.577Z,11.90
2022-10-29T18:44:09.946Z,11.97
2022-10-29T18:46:37.028Z,11.63
2022-10-29T18:49:04.489Z,10.67
2022-10-29T18:51:32.775Z,11.53
2022-10-29T18:54:00.282Z,12.47
2022-10-29T18:56:29.307Z,12.17
2022-10-29T18:58:57.153Z,10.97
2022-10-29T19:01:27.329Z,11.87
2022-10-29T19:03:57.058Z,11.23
2022-10-29T19:06:25.648Z,9.20
2022-10-29T19:08:53.484Z,10.67
2022-10-29T19:11:24.030Z,10.90
2022-10-29T19:13:58.853Z,11.10
2022-10-29T19:16:26.623Z,11.50
2022-10-29T19:19:03.025Z,11.93
2022-10-29T19:21:34.955Z,11.10
2022-10-29T19:24:03.085Z,11.20
2022-10-29T19:26:31.681Z,10.70
2022-10-29T19:29:00.970Z,10.77
2022-10-29T19:31:31.403Z,11.90
2022-10-29T19:34:00.892Z,10.23
2022-10-29T19:36:29.456Z,10.43
2022-10-29T19:38:57.176Z,10.77
2022-10-29T19:41:24.997Z,10.97
2022-10-29T19:43:52.508Z,12.33
2022-10-29T19:46:24.336Z,10.60
2022-10-29T19:48:54.307Z,10.40
2022-10-29T19:51:21.857Z,9.63
2022-10-29T19:53:51.506Z,11.03
2022-10-29T19:56:19.433Z,8.70
2022-10-29T19:58:47.153Z,11.50
2022-10-29T20:01:16.531Z,10.27
2022-10-29T20:03:44.280Z,10.93
2022-10-29T20:06:11.395Z,11.63
2022-10-29T20:08:38.963Z,12.57
2022-10-29T20:11:06.279Z,11.00
2022-10-29T20:13:33.676Z,11.73
2022-10-29T20:16:02.438Z,11.17
2022-10-29T20:18:29.808Z,22.73
2022-10-29T20:20:57.049Z,12.70
2022-10-29T20:23:25.721Z,13.23
2022-10-29T20:25:53.357Z,11.60
2022-10-29T20:28:20.758Z,11.37
2022-10-29T20:30:48.199Z,11.57
2022-10-29T20:33:15.534Z,12.80
2022-10-29T20:35:42.904Z,12.60
2022-10-29T20:38:09.910Z,11.97
2022-10-29T20:40:37.318Z,10.73
2022-10-29T20:43:04.712Z,10.73
2022-10-29T20:45:32.064Z,11.30
2022-10-29T20:48:01.900Z,10.03
2022-10-29T20:50:29.271Z,10.57
2022-10-29T20:52:56.716Z,10.17
2022-10-29T20:55:24.092Z,10.27
2022-10-29T20:57:51.393Z,10.87
2022-10-29T21:00:19.006Z,10.23
2022-10-29T21:02:46.419Z,9.13
2022-10-29T21:05:13.910Z,10.40
2022-10-29T21:07:41.270Z,10.03
2022-10-29T21:10:08.845Z,10.10
2022-10-29T21:12:36.008Z,11.50
2022-10-29T21:15:03.405Z,9.90
2022-10-29T21:17:30.823Z,11.37
2022-10-29T21:19:58.195Z,11.23
2022-10-29T21:22:25.522Z,11.20
2022-10-29T21:24:53.347Z,10.50
2022-10-29T21:27:20.683Z,11.60
2022-10-29T21:29:48.079Z,11.02
2022-10-29T21:32:17.143Z,10.70
2022-10-29T21:34:44.605Z,10.57
2022-10-29T21:37:11.933Z,9.13
2022-10-29T21:39:39.297Z,11.13
2022-10-29T21:42:06.641Z,10.80
2022-10-29T21:44:33.994Z,12.33
2022-10-29T21:47:01.501Z,11.80
2022-10-29T21:49:28.836Z,10.20
2022-10-29T21:51:56.141Z,10.73
2022-10-29T21:54:25.793Z,11.07
2022-10-29T21:56:55.757Z,10.70
2022-10-29T21:59:23.151Z,11.47
2022-10-29T22:01:50.609Z,10.10
2022-10-29T22:04:18.138Z,12.20
2022-10-29T22:06:45.478Z,12.13
2022-10-29T22:09:12.870Z,14.13
2022-10-29T22:11:40.227Z,12.77
2022-10-29T22:14:07.556Z,12.13
2022-10-29T22:16:34.861Z,12.70
2022-10-29T22:19:02.177Z,11.67
2022-10-29T22:21:31.112Z,11.40
2022-10-29T22:23:58.568Z,12.73
2022-10-29T22:26:27.931Z,12.60
2022-10-29T22:28:55.299Z,11.67
2022-10-29T22:31:23.413Z,14.23
2022-10-29T22:33:51.011Z,12.33
2022-10-29T22:36:26.031Z,12.50
2022-10-29T22:38:57.640Z,13.93
2022-10-29T22:41:26.128Z,13.67
2022-10-29T22:43:53.893Z,11.20
2022-10-29T22:46:22.087Z,12.93
2022-10-29T22:48:49.156Z,12.07
2022-10-29T22:51:18.922Z,13.07
2022-10-29T22:53:46.518Z,12.37
2022-10-29T22:56:19.298Z,13.27
2022-10-29T22:58:46.842Z,12.80
2022-10-29T23:01:16.433Z,11.93
2022-10-29T23:03:44.485Z,12.67
2022-10-29T23:06:13.596Z,11.73
2022-10-29T23:08:41.251Z,13.20
2022-10-29T23:11:30.035Z,11.33
2022-10-29T23:13:58.874Z,11.77
2022-10-29T23:16:28.116Z,11.47
2022-10-29T23:18:57.321Z,12.83
2022-10-29T23:21:24.897Z,11.77
2022-10-29T23:23:52.433Z,12.87
2022-10-29T23:26:20.676Z,11.93
2022-10-29T23:28:48.908Z,12.80
2022-10-29T23:31:24.877Z,10.67
2022-10-29T23:33:53.785Z,12.40
2022-10-29T23:36:23.211Z,13.10
2022-10-29T23:38:57.627Z,12.50
2022-10-29T23:41:25.735Z,11.70
2022-10-29T23:43:53.442Z,12.57
2022-10-29T23:46:21.001Z,11.03
2022-10-29T23:48:48.466Z,12.03
2022-10-29T23:51:15.798Z,13.53
2022-10-29T23:53:43.187Z,13.03
2022-10-29T23:56:10.624Z,13.00
2022-10-29T23:58:38.008Z,13.23
